createdAt,value
2023-03-20T00:00:37.032Z,788.00
2023-03-20T00:04:37.132Z,785.00
2023-03-20T00:08:37.185Z,787.00
2023-03-20T00:12:38.028Z,784.00
2023-03-20T00:16:37.379Z,791.00
2023-03-20T00:20:37.623Z,788.00
2023-03-20T00:24:37.539Z,786.00
2023-03-20T00:28:37.562Z,782.00
2023-03-20T00:32:37.663Z,777.00
2023-03-20T00:36:37.710Z,776.00
2023-03-20T00:40:37.781Z,777.00
2023-03-20T00:44:39.994Z,778.00
2023-03-20T00:48:37.833Z,779.00
2023-03-20T00:52:37.830Z,773.00
2023-03-20T00:56:37.769Z,779.00
2023-03-20T01:00:37.780Z,779.00
2023-03-20T01:04:38.030Z,783.00
2023-03-20T01:08:37.626Z,783.00
2023-03-20T01:12:37.613Z,784.00
2023-03-20T01:16:37.693Z,774.00
2023-03-20T01:20:37.547Z,775.00
2023-03-20T01:24:40.305Z,765.00
2023-03-20T01:28:37.541Z,773.00
2023-03-20T01:32:37.444Z,771.00
2023-03-20T01:36:37.384Z,776.00
2023-03-20T01:40:37.459Z,774.00
2023-03-20T01:44:37.332Z,774.00
2023-03-20T01:48:37.287Z,780.00
2023-03-20T01:52:37.541Z,775.00
2023-03-20T01:56:37.247Z,780.00
2023-03-20T02:00:37.171Z,774.00
2023-03-20T02:04:37.204Z,776.00
2023-03-20T02:08:37.123Z,784.00
2023-03-20T02:12:37.145Z,782.00
2023-03-20T02:16:37.185Z,776.00
2023-03-20T02:20:37.027Z,777.00
2023-03-20T02:24:36.937Z,778.00
2023-03-20T02:28:36.909Z,783.00
2023-03-20T02:32:36.932Z,780.00
2023-03-20T02:36:36.866Z,781.00
2023-03-20T02:40:43.995Z,784.00
2023-03-20T02:44:36.804Z,787.00
2023-03-20T02:48:37.085Z,787.00
2023-03-20T02:52:36.714Z,785.00
2023-03-20T02:56:37.088Z,789.00
2023-03-20T03:00:36.623Z,784.00
2023-03-20T03:04:36.645Z,780.00
2023-03-20T03:08:36.534Z,781.00
2023-03-20T03:12:36.517Z,779.00
2023-03-20T03:16:36.468Z,780.00
2023-03-20T03:20:36.385Z,781.00
2023-03-20T03:24:41.175Z,790.00
2023-03-20T03:28:37.452Z,781.00
2023-03-20T03:32:36.407Z,782.00
2023-03-20T03:36:36.273Z,786.00
2023-03-20T03:40:36.215Z,787.00
2023-03-20T03:44:36.549Z,782.00
2023-03-20T03:48:36.233Z,780.00
2023-03-20T03:52:36.311Z,781.00
2023-03-20T03:56:36.290Z,776.00
2023-03-20T04:00:36.475Z,779.00
2023-03-20T04:04:36.504Z,779.00
2023-03-20T04:08:36.489Z,781.00
2023-03-20T04:12:36.557Z,778.00
2023-03-20T04:16:36.611Z,784.00
2023-03-20T04:20:36.656Z,777.00
2023-03-20T04:24:36.675Z,777.00
2023-03-20T04:28:36.749Z,781.00
2023-03-20T04:32:36.784Z,775.00
2023-03-20T04:36:36.895Z,771.00
2023-03-20T04:40:36.926Z,773.00
2023-03-20T04:44:36.947Z,769.00
2023-03-20T04:48:37.016Z,774.00
2023-03-20T04:52:37.043Z,779.00
2023-03-20T04:56:37.102Z,780.00
2023-03-20T05:00:37.188Z,776.00
2023-03-20T05:04:37.214Z,769.00
2023-03-20T05:08:37.294Z,773.00
2023-03-20T05:12:37.314Z,775.00
2023-03-20T05:16:38.146Z,777.00
2023-03-20T05:20:37.414Z,773.00
2023-03-20T05:24:38.098Z,776.00
2023-03-20T05:28:37.510Z,776.00
2023-03-20T05:32:37.609Z,777.00
2023-03-20T05:36:37.602Z,781.00
2023-03-20T05:40:37.631Z,774.00
2023-03-20T05:44:37.701Z,775.00
2023-03-20T05:48:37.740Z,781.00
2023-03-20T05:52:37.800Z,784.00
2023-03-20T05:56:38.261Z,785.00
2023-03-20T06:00:37.920Z,779.00
2023-03-20T06:04:37.930Z,782.00
2023-03-20T06:08:38.637Z,779.00
2023-03-20T06:12:37.973Z,779.00
2023-03-20T06:16:38.013Z,777.00
2023-03-20T06:20:38.014Z,779.00
2023-03-20T06:24:38.000Z,779.00
2023-03-20T06:28:38.161Z,785.00
2023-03-20T06:32:38.186Z,594.00
2023-03-20T06:40:57.448Z,798.00
2023-03-20T06:44:57.246Z,908.00
2023-03-20T06:48:57.234Z,856.00
2023-03-20T06:52:57.269Z,969.00
2023-03-20T06:56:58.094Z,998.00
2023-03-20T07:00:57.396Z,975.00
2023-03-20T07:04:57.293Z,948.00
2023-03-20T07:08:57.258Z,865.00
2023-03-20T07:12:57.217Z,967.00
2023-03-20T07:16:57.286Z,1025.00
2023-03-20T07:20:57.122Z,1039.00
2023-03-20T07:24:57.454Z,1043.00
2023-03-20T07:28:57.262Z,1013.00
2023-03-20T07:33:00.167Z,1018.00
2023-03-20T07:36:57.068Z,1061.00
2023-03-20T07:40:57.006Z,1037.00
2023-03-20T07:44:57.097Z,1016.00
2023-03-20T07:48:56.908Z,948.00
2023-03-20T07:52:56.920Z,891.00
2023-03-20T07:56:57.127Z,851.00
2023-03-20T08:00:56.928Z,797.00
2023-03-20T08:04:56.950Z,774.00
2023-03-20T08:08:56.771Z,734.00
2023-03-20T08:12:56.692Z,693.00
2023-03-20T08:17:12.874Z,675.00
2023-03-20T08:20:57.956Z,659.00
2023-03-20T08:24:56.716Z,630.00
2023-03-20T08:28:56.535Z,606.00
2023-03-20T08:32:56.593Z,591.00
2023-03-20T08:36:56.533Z,800.00
2023-03-20T08:40:56.413Z,1012.00
2023-03-20T08:44:56.498Z,1038.00
2023-03-20T08:48:56.630Z,1118.00
2023-03-20T08:52:56.634Z,1245.00
2023-03-20T08:56:56.991Z,1280.00
2023-03-20T09:00:56.628Z,1300.00
2023-03-20T09:04:56.755Z,1281.00
2023-03-20T09:08:57.612Z,1238.00
2023-03-20T09:12:56.831Z,1240.00
2023-03-20T09:16:56.874Z,1168.00
2023-03-20T09:20:57.242Z,1157.00
2023-03-20T09:24:57.189Z,1182.00
2023-03-20T09:28:57.312Z,1199.00
2023-03-20T09:32:57.503Z,1116.00
2023-03-20T09:36:57.413Z,1113.00
2023-03-20T09:40:57.482Z,1103.00
2023-03-20T09:44:57.498Z,1276.00
2023-03-20T09:48:58.082Z,1334.00
2023-03-20T09:52:57.545Z,1438.00
2023-03-20T09:56:57.717Z,1552.00
2023-03-20T10:00:58.033Z,1702.00
2023-03-20T10:04:58.159Z,1849.00
2023-03-20T10:08:58.326Z,1876.00
2023-03-20T10:12:58.452Z,1975.00
2023-03-20T10:16:58.481Z,2073.00
2023-03-20T10:20:59.644Z,2160.00
2023-03-20T10:24:58.695Z,2232.00
2023-03-20T10:28:58.717Z,2338.00
2023-03-20T10:32:58.803Z,2404.00
2023-03-20T10:36:58.992Z,1446.00
2023-03-20T10:40:58.977Z,1547.00
2023-03-20T10:44:59.656Z,1617.00
2023-03-20T10:48:59.415Z,1589.00
2023-03-20T10:52:59.591Z,1574.00
2023-03-20T10:57:00.580Z,1601.00
2023-03-20T11:01:00.016Z,1565.00
2023-03-20T11:05:00.102Z,1614.00
2023-03-20T11:09:00.285Z,1602.00
2023-03-20T11:13:01.082Z,1572.00
2023-03-20T11:17:00.710Z,1541.00
2023-03-20T11:21:00.761Z,1538.00
2023-03-20T11:25:00.997Z,1436.00
2023-03-20T11:29:01.103Z,1432.00
2023-03-20T11:33:01.335Z,1458.00
2023-03-20T11:37:16.459Z,1455.00
2023-03-20T11:41:02.435Z,1458.00
2023-03-20T11:45:01.421Z,1433.00
2023-03-20T11:49:01.277Z,1113.00
2023-03-20T11:53:01.421Z,990.00
2023-03-20T11:57:01.638Z,972.00
2023-03-20T12:01:01.384Z,771.00
2023-03-20T12:05:01.176Z,696.00
2023-03-20T12:09:01.162Z,788.00
2023-03-20T12:13:01.116Z,940.00
2023-03-20T12:17:01.234Z,1125.00
2023-03-20T12:21:01.062Z,1095.00
2023-03-20T12:25:01.004Z,1088.00
2023-03-20T12:29:00.973Z,1092.00
2023-03-20T12:33:01.248Z,1089.00
2023-03-20T12:37:00.901Z,1090.00
2023-03-20T12:41:00.889Z,1088.00
2023-03-20T12:45:00.838Z,1089.00
2023-03-20T12:49:00.931Z,1090.00
2023-03-20T12:53:01.201Z,1089.00
2023-03-20T12:57:00.816Z,1084.00
2023-03-20T13:01:00.755Z,1085.00
2023-03-20T13:05:00.737Z,1086.00
2023-03-20T13:09:00.697Z,1081.00
2023-03-20T13:13:00.768Z,1076.00
2023-03-20T13:17:00.806Z,1077.00
2023-03-20T13:21:01.013Z,1076.00
2023-03-20T13:25:01.073Z,1257.00
2023-03-20T13:29:01.036Z,1238.00
2023-03-20T13:33:01.359Z,1268.00
2023-03-20T13:37:12.371Z,1283.00
2023-03-20T13:41:01.887Z,1271.00
2023-03-20T13:45:00.816Z,1257.00
2023-03-20T13:49:00.796Z,1257.00
2023-03-20T13:53:00.908Z,1244.00
2023-03-20T13:57:01.138Z,1223.00
2023-03-20T14:01:01.178Z,1198.00
2023-03-20T14:05:01.238Z,1191.00
2023-03-20T14:09:01.365Z,1219.00
2023-03-20T14:13:01.353Z,931.00
2023-03-20T14:17:01.725Z,1015.00
2023-03-20T14:21:01.745Z,1008.00
2023-03-20T14:25:08.676Z,953.00
2023-03-20T14:29:04.653Z,970.00
2023-03-20T14:33:01.875Z,974.00
2023-03-20T14:37:02.180Z,909.00
2023-03-20T14:41:01.874Z,866.00
2023-03-20T14:45:01.750Z,873.00
2023-03-20T14:49:01.666Z,875.00
2023-03-20T14:53:01.616Z,863.00
2023-03-20T14:57:01.588Z,926.00
2023-03-20T15:01:01.717Z,905.00
2023-03-20T15:05:01.505Z,887.00
2023-03-20T15:09:01.510Z,879.00
2023-03-20T15:13:01.492Z,879.00
2023-03-20T15:17:01.423Z,880.00
2023-03-20T15:21:01.382Z,881.00
2023-03-20T15:25:01.663Z,879.00
2023-03-20T15:29:01.343Z,884.00
2023-03-20T15:33:02.353Z,884.00
2023-03-20T15:37:01.320Z,884.00
2023-03-20T15:41:01.296Z,885.00
2023-03-20T15:45:01.410Z,889.00
2023-03-20T15:49:01.306Z,891.00
2023-03-20T15:53:01.474Z,881.00
2023-03-20T15:57:04.217Z,877.00
2023-03-20T16:01:01.364Z,877.00
2023-03-20T16:05:01.309Z,882.00
2023-03-20T16:09:01.367Z,881.00
2023-03-20T16:13:01.280Z,885.00
2023-03-20T16:17:01.145Z,874.00
2023-03-20T16:21:01.376Z,862.00
2023-03-20T16:25:01.160Z,835.00
2023-03-20T16:29:01.123Z,829.00
2023-03-20T16:33:01.156Z,831.00
2023-03-20T16:37:00.994Z,829.00
2023-03-20T16:41:00.972Z,832.00
2023-03-20T16:45:00.914Z,835.00
2023-03-20T16:49:00.968Z,832.00
2023-03-20T16:53:00.808Z,834.00
2023-03-20T16:57:00.852Z,833.00
2023-03-20T17:01:01.267Z,838.00
2023-03-20T17:05:00.756Z,836.00
2023-03-20T17:09:00.695Z,836.00
2023-03-20T17:13:00.813Z,834.00
2023-03-20T17:17:00.987Z,835.00
2023-03-20T17:21:01.193Z,833.00
2023-03-20T17:25:01.509Z,833.00
2023-03-20T17:29:01.721Z,830.00
2023-03-20T17:33:01.890Z,832.00
2023-03-20T17:37:02.117Z,832.00
2023-03-20T17:41:02.314Z,836.00
2023-03-20T17:45:02.554Z,833.00
2023-03-20T17:49:02.709Z,832.00
2023-03-20T17:53:02.921Z,832.00
2023-03-20T17:57:02.862Z,834.00
2023-03-20T18:01:02.950Z,834.00
2023-03-20T18:05:02.861Z,838.00
2023-03-20T18:09:02.723Z,833.00
2023-03-20T18:13:02.744Z,833.00
2023-03-20T18:17:02.712Z,830.00
2023-03-20T18:21:02.684Z,831.00
2023-03-20T18:25:02.569Z,835.00
2023-03-20T18:29:02.554Z,834.00
2023-03-20T18:33:02.807Z,831.00
2023-03-20T18:37:02.989Z,831.00
2023-03-20T18:41:03.164Z,829.00
2023-03-20T18:45:03.286Z,828.00
2023-03-20T18:49:03.585Z,829.00
2023-03-20T18:53:03.598Z,830.00
2023-03-20T18:57:03.811Z,826.00
2023-03-20T19:01:04.365Z,830.00
2023-03-20T19:05:03.923Z,825.00
2023-03-20T19:09:04.016Z,822.00
2023-03-20T19:13:04.118Z,822.00
2023-03-20T19:17:05.309Z,821.00
2023-03-20T19:21:04.307Z,825.00
2023-03-20T19:25:04.346Z,815.00
2023-03-20T19:29:04.384Z,820.00
2023-03-20T19:33:04.402Z,823.00
2023-03-20T19:37:04.421Z,821.00
2023-03-20T19:41:04.504Z,819.00
2023-03-20T19:45:04.413Z,823.00
2023-03-20T19:49:04.342Z,820.00
2023-03-20T19:53:04.322Z,822.00
2023-03-20T19:57:04.389Z,826.00
2023-03-20T20:01:13.245Z,825.00
2023-03-20T20:05:05.293Z,823.00
2023-03-20T20:09:04.310Z,823.00
2023-03-20T20:13:04.168Z,825.00
2023-03-20T20:17:04.190Z,830.00
2023-03-20T20:25:05.113Z,820.00
2023-03-20T20:29:04.147Z,819.00
2023-03-20T20:33:05.468Z,826.00
2023-03-20T20:41:04.940Z,815.00
2023-03-20T20:45:04.052Z,825.00
2023-03-20T20:49:18.128Z,820.00
2023-03-20T20:53:04.876Z,816.00
2023-03-20T20:57:03.871Z,818.00
2023-03-20T21:01:03.782Z,818.00
2023-03-20T21:05:03.759Z,821.00
2023-03-20T21:09:03.688Z,820.00
2023-03-20T21:13:03.661Z,821.00
2023-03-20T21:17:03.938Z,821.00
2023-03-20T21:21:03.901Z,819.00
2023-03-20T21:25:13.841Z,822.00
2023-03-20T21:29:04.510Z,823.00
2023-03-20T21:33:03.579Z,822.00
2023-03-20T21:38:01.161Z,819.00
2023-03-20T21:41:04.383Z,819.00
2023-03-20T21:49:54.502Z,821.00
2023-03-20T21:53:54.134Z,817.00
2023-03-20T21:57:44.484Z,815.00
2023-03-20T22:10:05.615Z,817.00
2023-03-20T22:14:12.600Z,817.00
2023-03-20T22:21:48.538Z,807.00
2023-03-20T22:29:48.164Z,811.00
2023-03-20T22:45:07.505Z,805.00
2023-03-20T22:49:02.796Z,810.00
2023-03-20T22:53:02.796Z,812.00
2023-03-20T22:57:02.671Z,814.00
2023-03-20T23:01:02.988Z,814.00
2023-03-20T23:05:03.905Z,815.00
2023-03-20T23:09:09.042Z,817.00
2023-03-20T23:13:03.639Z,812.00
2023-03-20T23:17:02.627Z,813.00
2023-03-20T23:21:02.608Z,812.00
2023-03-20T23:25:12.211Z,812.00
2023-03-20T23:29:03.546Z,812.00
2023-03-20T23:33:02.634Z,806.00
2023-03-20T23:37:03.406Z,810.00
2023-03-20T23:41:02.422Z,817.00
2023-03-20T23:45:17.189Z,813.00
2023-03-20T23:49:03.395Z,809.00
2023-03-20T23:57:03.328Z,808.00
